sensor_id;sensor_type;location;lat;lon;timestamp;P1;durP1;ratioP1;P2;durP2;ratioP2
10050;SDS011;5065;46.942;7.432;2022-11-14T00:00:24;13.17;;;9.57;;
10050;SDS011;5065;46.942;7.432;2022-11-14T00:02:51;19.37;;;9.80;;
10050;SDS011;5065;46.942;7.432;2022-11-14T00:05:19;13.77;;;9.90;;
10050;SDS011;5065;46.942;7.432;2022-11-14T00:07:48;13.70;;;9.93;;
10050;SDS011;5065;46.942;7.432;2022-11-14T00:10:15;12.17;;;9.43;;
10050;SDS011;5065;46.942;7.432;2022-11-14T00:12:44;11.70;;;10.03;;
10050;SDS011;5065;46.942;7.432;2022-11-14T00:15:12;17.93;;;10.20;;
10050;SDS011;5065;46.942;7.432;2022-11-14T00:17:40;18.73;;;10.77;;
10050;SDS011;5065;46.942;7.432;2022-11-14T00:20:08;13.90;;;10.40;;
10050;SDS011;5065;46.942;7.432;2022-11-14T00:22:37;13.87;;;10.37;;
10050;SDS011;5065;46.942;7.432;2022-11-14T00:25:05;14.47;;;10.67;;
10050;SDS011;5065;46.942;7.432;2022-11-14T00:27:32;12.03;;;9.57;;
10050;SDS011;5065;46.942;7.432;2022-11-14T00:30:01;14.73;;;10.50;;
10050;SDS011;5065;46.942;7.432;2022-11-14T00:32:29;11.90;;;9.47;;
10050;SDS011;5065;46.942;7.432;2022-11-14T00:34:57;12.03;;;9.80;;
10050;SDS011;5065;46.942;7.432;2022-11-14T00:37:24;15.93;;;9.67;;
10050;SDS011;5065;46.942;7.432;2022-11-14T00:39:51;12.17;;;9.10;;
10050;SDS011;5065;46.942;7.432;2022-11-14T00:42:19;13.60;;;10.27;;
10050;SDS011;5065;46.942;7.432;2022-11-14T00:44:46;12.13;;;8.37;;
10050;SDS011;5065;46.942;7.432;2022-11-14T00:47:15;14.33;;;8.93;;
10050;SDS011;5065;46.942;7.432;2022-11-14T00:49:43;17.30;;;9.97;;
10050;SDS011;5065;46.942;7.432;2022-11-14T00:52:10;18.23;;;11.00;;
10050;SDS011;5065;46.942;7.432;2022-11-14T00:54:38;12.37;;;9.47;;
10050;SDS011;5065;46.942;7.432;2022-11-14T00:57:06;12.93;;;9.50;;
10050;SDS011;5065;46.942;7.432;2022-11-14T00:59:33;15.53;;;10.27;;
10050;SDS011;5065;46.942;7.432;2022-11-14T01:02:00;11.83;;;9.30;;
10050;SDS011;5065;46.942;7.432;2022-11-14T01:04:29;11.00;;;8.97;;
10050;SDS011;5065;46.942;7.432;2022-11-14T01:06:56;11.27;;;9.03;;
10050;SDS011;5065;46.942;7.432;2022-11-14T01:09:23;12.00;;;9.40;;
10050;SDS011;5065;46.942;7.432;2022-11-14T01:11:50;12.53;;;8.93;;
10050;SDS011;5065;46.942;7.432;2022-11-14T01:14:17;14.67;;;10.47;;
10050;SDS011;5065;46.942;7.432;2022-11-14T01:16:45;11.97;;;9.10;;
10050;SDS011;5065;46.942;7.432;2022-11-14T01:19:12;13.30;;;10.10;;
10050;SDS011;5065;46.942;7.432;2022-11-14T01:21:41;11.77;;;8.70;;
10050;SDS011;5065;46.942;7.432;2022-11-14T01:24:08;12.70;;;9.33;;
10050;SDS011;5065;46.942;7.432;2022-11-14T01:26:35;13.60;;;9.97;;
10050;SDS011;5065;46.942;7.432;2022-11-14T01:29:03;12.27;;;9.10;;
10050;SDS011;5065;46.942;7.432;2022-11-14T01:31:31;12.53;;;9.73;;
10050;SDS011;5065;46.942;7.432;2022-11-14T01:33:58;11.43;;;9.73;;
10050;SDS011;5065;46.942;7.432;2022-11-14T01:36:26;17.80;;;11.33;;
10050;SDS011;5065;46.942;7.432;2022-11-14T01:38:54;11.93;;;9.73;;
10050;SDS011;5065;46.942;7.432;2022-11-14T01:41:22;12.33;;;9.47;;
10050;SDS011;5065;46.942;7.432;2022-11-14T01:43:49;13.33;;;8.90;;
10050;SDS011;5065;46.942;7.432;2022-11-14T01:46:18;11.37;;;8.97;;
10050;SDS011;5065;46.942;7.432;2022-11-14T01:48:49;14.03;;;8.63;;
10050;SDS011;5065;46.942;7.432;2022-11-14T01:51:22;14.23;;;10.07;;
10050;SDS011;5065;46.942;7.432;2022-11-14T01:53:53;12.33;;;8.97;;
10050;SDS011;5065;46.942;7.432;2022-11-14T01:56:24;11.70;;;9.33;;
10050;SDS011;5065;46.942;7.432;2022-11-14T01:58:55;12.03;;;9.33;;
10050;SDS011;5065;46.942;7.432;2022-11-14T02:01:28;10.83;;;8.70;;
10050;SDS011;5065;46.942;7.432;2022-11-14T02:03:58;12.30;;;9.27;;
10050;SDS011;5065;46.942;7.432;2022-11-14T02:06:27;24.20;;;9.47;;
10050;SDS011;5065;46.942;7.432;2022-11-14T02:08:58;11.97;;;8.83;;
10050;SDS011;5065;46.942;7.432;2022-11-14T02:11:28;10.77;;;8.70;;
10050;SDS011;5065;46.942;7.432;2022-11-14T02:13:58;12.50;;;9.37;;
10050;SDS011;5065;46.942;7.432;2022-11-14T02:16:25;12.87;;;9.57;;
10050;SDS011;5065;46.942;7.432;2022-11-14T02:18:53;13.70;;;9.83;;
10050;SDS011;5065;46.942;7.432;2022-11-14T02:21:21;12.53;;;9.63;;
10050;SDS011;5065;46.942;7.432;2022-11-14T02:23:48;13.70;;;10.03;;
10050;SDS011;5065;46.942;7.432;2022-11-14T02:26:16;12.77;;;10.10;;
10050;SDS011;5065;46.942;7.432;2022-11-14T02:28:44;13.63;;;9.70;;
10050;SDS011;5065;46.942;7.432;2022-11-14T02:31:11;15.27;;;10.23;;
10050;SDS011;5065;46.942;7.432;2022-11-14T02:33:39;14.90;;;10.57;;
10050;SDS011;5065;46.942;7.432;2022-11-14T02:36:07;13.80;;;10.50;;
10050;SDS011;5065;46.942;7.432;2022-11-14T02:38:36;15.23;;;10.20;;
10050;SDS011;5065;46.942;7.432;2022-11-14T02:41:03;12.93;;;9.57;;
10050;SDS011;5065;46.942;7.432;2022-11-14T02:43:31;12.27;;;9.97;;
10050;SDS011;5065;46.942;7.432;2022-11-14T02:45:58;14.20;;;10.00;;
10050;SDS011;5065;46.942;7.432;2022-11-14T02:48:25;13.37;;;10.47;;
10050;SDS011;5065;46.942;7.432;2022-11-14T02:50:53;10.60;;;8.87;;
10050;SDS011;5065;46.942;7.432;2022-11-14T02:53:20;13.43;;;9.50;;
10050;SDS011;5065;46.942;7.432;2022-11-14T02:55:48;13.13;;;9.73;;
10050;SDS011;5065;46.942;7.432;2022-11-14T02:58:15;12.30;;;9.43;;
10050;SDS011;5065;46.942;7.432;2022-11-14T03:00:42;12.80;;;9.43;;
10050;SDS011;5065;46.942;7.432;2022-11-14T03:03:10;16.57;;;10.47;;
10050;SDS011;5065;46.942;7.432;2022-11-14T03:05:37;12.13;;;9.93;;
10050;SDS011;5065;46.942;7.432;2022-11-14T03:08:04;13.20;;;9.73;;
10050;SDS011;5065;46.942;7.432;2022-11-14T03:10:31;14.87;;;10.47;;
10050;SDS011;5065;46.942;7.432;2022-11-14T03:13:00;16.20;;;9.83;;
10050;SDS011;5065;46.942;7.432;2022-11-14T03:15:27;12.17;;;10.33;;
10050;SDS011;5065;46.942;7.432;2022-11-14T03:17:54;13.17;;;10.07;;
10050;SDS011;5065;46.942;7.432;2022-11-14T03:20:21;13.30;;;10.57;;
10050;SDS011;5065;46.942;7.432;2022-11-14T03:22:48;14.73;;;11.10;;
10050;SDS011;5065;46.942;7.432;2022-11-14T03:25:16;15.83;;;11.37;;
10050;SDS011;5065;46.942;7.432;2022-11-14T03:27:43;13.37;;;10.70;;
10050;SDS011;5065;46.942;7.432;2022-11-14T03:30:12;13.93;;;10.27;;
10050;SDS011;5065;46.942;7.432;2022-11-14T03:32:39;15.23;;;11.60;;
10050;SDS011;5065;46.942;7.432;2022-11-14T03:35:07;13.87;;;11.10;;
10050;SDS011;5065;46.942;7.432;2022-11-14T03:37:35;15.77;;;11.20;;
10050;SDS011;5065;46.942;7.432;2022-11-14T03:40:02;15.07;;;11.10;;
10050;SDS011;5065;46.942;7.432;2022-11-14T03:42:31;14.20;;;10.90;;
10050;SDS011;5065;46.942;7.432;2022-11-14T03:44:59;14.60;;;10.73;;
10050;SDS011;5065;46.942;7.432;2022-11-14T03:47:28;14.50;;;10.87;;
10050;SDS011;5065;46.942;7.432;2022-11-14T03:49:55;13.67;;;10.30;;
10050;SDS011;5065;46.942;7.432;2022-11-14T03:52:22;16.07;;;11.00;;
10050;SDS011;5065;46.942;7.432;2022-11-14T03:54:50;13.90;;;11.23;;
10050;SDS011;5065;46.942;7.432;2022-11-14T03:57:17;15.80;;;11.63;;
10050;SDS011;5065;46.942;7.432;2022-11-14T03:59:44;16.70;;;11.27;;
10050;SDS011;5065;46.942;7.432;2022-11-14T04:02:11;13.30;;;10.20;;
10050;SDS011;5065;46.942;7.432;2022-11-14T04:04:40;12.47;;;9.83;;
10050;SDS011;5065;46.942;7.432;2022-11-14T04:07:07;12.47;;;9.13;;
10050;SDS011;5065;46.942;7.432;2022-11-14T04:09:35;15.87;;;10.63;;
10050;SDS011;5065;46.942;7.432;2022-11-14T04:12:02;14.87;;;11.40;;
10050;SDS011;5065;46.942;7.432;2022-11-14T04:14:30;14.73;;;11.97;;
10050;SDS011;5065;46.942;7.432;2022-11-14T04:16:57;17.23;;;11.93;;
10050;SDS011;5065;46.942;7.432;2022-11-14T04:19:24;17.77;;;12.87;;
10050;SDS011;5065;46.942;7.432;2022-11-14T04:21:53;17.33;;;12.47;;
10050;SDS011;5065;46.942;7.432;2022-11-14T04:24:20;19.30;;;12.27;;
10050;SDS011;5065;46.942;7.432;2022-11-14T04:26:48;15.90;;;11.47;;
10050;SDS011;5065;46.942;7.432;2022-11-14T04:29:15;17.40;;;11.70;;
10050;SDS011;5065;46.942;7.432;2022-11-14T04:31:42;15.13;;;11.33;;
10050;SDS011;5065;46.942;7.432;2022-11-14T04:34:09;19.20;;;12.30;;
10050;SDS011;5065;46.942;7.432;2022-11-14T04:36:37;14.80;;;11.67;;
10050;SDS011;5065;46.942;7.432;2022-11-14T04:39:06;18.40;;;12.13;;
10050;SDS011;5065;46.942;7.432;2022-11-14T04:41:33;15.73;;;11.60;;
10050;SDS011;5065;46.942;7.432;2022-11-14T04:44:01;16.97;;;11.77;;
10050;SDS011;5065;46.942;7.432;2022-11-14T04:46:28;16.03;;;11.50;;
10050;SDS011;5065;46.942;7.432;2022-11-14T04:48:55;17.63;;;11.83;;
10050;SDS011;5065;46.942;7.432;2022-11-14T04:51:23;17.50;;;11.47;;
10050;SDS011;5065;46.942;7.432;2022-11-14T04:53:50;16.37;;;11.63;;
10050;SDS011;5065;46.942;7.432;2022-11-14T04:56:19;14.87;;;11.43;;
10050;SDS011;5065;46.942;7.432;2022-11-14T04:58:49;15.63;;;12.30;;
10050;SDS011;5065;46.942;7.432;2022-11-14T05:01:16;14.37;;;10.63;;
10050;SDS011;5065;46.942;7.432;2022-11-14T05:03:44;14.93;;;11.77;;
10050;SDS011;5065;46.942;7.432;2022-11-14T05:06:12;16.80;;;12.07;;
10050;SDS011;5065;46.942;7.432;2022-11-14T05:08:39;15.67;;;11.60;;
10050;SDS011;5065;46.942;7.432;2022-11-14T05:11:06;14.70;;;11.03;;
10050;SDS011;5065;46.942;7.432;2022-11-14T05:13:39;13.53;;;10.57;;
10050;SDS011;5065;46.942;7.432;2022-11-14T05:16:07;17.03;;;11.93;;
10050;SDS011;5065;46.942;7.432;2022-11-14T05:18:36;14.53;;;11.83;;
10050;SDS011;5065;46.942;7.432;2022-11-14T05:21:03;16.70;;;11.70;;
10050;SDS011;5065;46.942;7.432;2022-11-14T05:23:31;16.47;;;12.17;;
10050;SDS011;5065;46.942;7.432;2022-11-14T05:25:59;14.77;;;11.87;;
10050;SDS011;5065;46.942;7.432;2022-11-14T05:28:27;15.43;;;11.87;;
10050;SDS011;5065;46.942;7.432;2022-11-14T05:31:00;17.53;;;11.97;;
10050;SDS011;5065;46.942;7.432;2022-11-14T05:33:28;17.43;;;11.37;;
10050;SDS011;5065;46.942;7.432;2022-11-14T05:36:00;16.27;;;11.87;;
10050;SDS011;5065;46.942;7.432;2022-11-14T05:38:28;15.23;;;12.03;;
10050;SDS011;5065;46.942;7.432;2022-11-14T05:40:55;15.23;;;11.60;;
10050;SDS011;5065;46.942;7.432;2022-11-14T05:43:23;13.50;;;10.73;;
10050;SDS011;5065;46.942;7.432;2022-11-14T05:45:50;13.33;;;10.93;;
10050;SDS011;5065;46.942;7.432;2022-11-14T05:48:19;15.53;;;11.73;;
10050;SDS011;5065;46.942;7.432;2022-11-14T05:50:46;14.43;;;11.27;;
10050;SDS011;5065;46.942;7.432;2022-11-14T05:53:13;17.07;;;12.23;;
10050;SDS011;5065;46.942;7.432;2022-11-14T05:55:40;19.53;;;12.70;;
10050;SDS011;5065;46.942;7.432;2022-11-14T05:58:08;13.33;;;10.80;;
10050;SDS011;5065;46.942;7.432;2022-11-14T06:00:35;15.20;;;11.13;;
10050;SDS011;5065;46.942;7.432;2022-11-14T06:03:02;14.27;;;11.60;;
10050;SDS011;5065;46.942;7.432;2022-11-14T06:05:30;15.40;;;11.73;;
10050;SDS011;5065;46.942;7.432;2022-11-14T06:07:59;14.07;;;11.07;;
10050;SDS011;5065;46.942;7.432;2022-11-14T06:10:27;16.80;;;12.00;;
10050;SDS011;5065;46.942;7.432;2022-11-14T06:12:54;13.63;;;10.53;;
10050;SDS011;5065;46.942;7.432;2022-11-14T06:15:21;15.07;;;11.33;;
10050;SDS011;5065;46.942;7.432;2022-11-14T06:17:50;16.13;;;11.40;;
10050;SDS011;5065;46.942;7.432;2022-11-14T06:20:18;14.50;;;11.77;;
10050;SDS011;5065;46.942;7.432;2022-11-14T06:22:47;14.40;;;11.20;;
10050;SDS011;5065;46.942;7.432;2022-11-14T06:25:14;15.47;;;11.63;;
10050;SDS011;5065;46.942;7.432;2022-11-14T06:27:41;13.47;;;11.23;;
10050;SDS011;5065;46.942;7.432;2022-11-14T06:30:09;13.27;;;10.60;;
10050;SDS011;5065;46.942;7.432;2022-11-14T06:32:38;16.07;;;11.50;;
10050;SDS011;5065;46.942;7.432;2022-11-14T06:35:06;14.73;;;11.20;;
10050;SDS011;5065;46.942;7.432;2022-11-14T06:37:34;15.17;;;11.23;;
10050;SDS011;5065;46.942;7.432;2022-11-14T06:40:03;13.17;;;10.43;;
10050;SDS011;5065;46.942;7.432;2022-11-14T06:42:31;13.37;;;10.83;;
10050;SDS011;5065;46.942;7.432;2022-11-14T06:44:59;14.20;;;11.47;;
10050;SDS011;5065;46.942;7.432;2022-11-14T06:47:26;14.20;;;11.37;;
10050;SDS011;5065;46.942;7.432;2022-11-14T06:49:53;16.17;;;11.53;;
10050;SDS011;5065;46.942;7.432;2022-11-14T06:52:20;15.40;;;11.33;;
10050;SDS011;5065;46.942;7.432;2022-11-14T06:54:47;16.53;;;12.67;;
10050;SDS011;5065;46.942;7.432;2022-11-14T06:57:16;16.23;;;12.00;;
10050;SDS011;5065;46.942;7.432;2022-11-14T06:59:44;16.20;;;12.13;;
10050;SDS011;5065;46.942;7.432;2022-11-14T07:02:12;18.43;;;13.27;;
10050;SDS011;5065;46.942;7.432;2022-11-14T07:04:39;14.40;;;11.40;;
10050;SDS011;5065;46.942;7.432;2022-11-14T07:07:06;15.13;;;11.57;;
10050;SDS011;5065;46.942;7.432;2022-11-14T07:09:34;14.30;;;11.83;;
10050;SDS011;5065;46.942;7.432;2022-11-14T07:12:01;15.33;;;11.60;;
10050;SDS011;5065;46.942;7.432;2022-11-14T07:14:29;14.57;;;11.17;;
10050;SDS011;5065;46.942;7.432;2022-11-14T07:16:57;14.87;;;11.10;;
10050;SDS011;5065;46.942;7.432;2022-11-14T07:19:24;14.93;;;10.53;;
10050;SDS011;5065;46.942;7.432;2022-11-14T07:21:52;13.97;;;11.10;;
10050;SDS011;5065;46.942;7.432;2022-11-14T07:24:20;15.27;;;11.23;;
10050;SDS011;5065;46.942;7.432;2022-11-14T07:26:47;15.97;;;11.87;;
10050;SDS011;5065;46.942;7.432;2022-11-14T07:29:14;14.10;;;11.17;;
10050;SDS011;5065;46.942;7.432;2022-11-14T07:31:42;14.83;;;11.20;;
10050;SDS011;5065;46.942;7.432;2022-11-14T07:34:10;12.20;;;10.43;;
10050;SDS011;5065;46.942;7.432;2022-11-14T07:36:38;12.73;;;10.73;;
10050;SDS011;5065;46.942;7.432;2022-11-14T07:39:06;13.80;;;10.53;;
10050;SDS011;5065;46.942;7.432;2022-11-14T07:41:33;16.10;;;10.43;;
10050;SDS011;5065;46.942;7.432;2022-11-14T07:44:00;18.10;;;10.90;;
10050;SDS011;5065;46.942;7.432;2022-11-14T07:46:27;14.30;;;9.83;;
10050;SDS011;5065;46.942;7.432;2022-11-14T07:48:56;13.97;;;10.73;;
10050;SDS011;5065;46.942;7.432;2022-11-14T07:51:23;13.33;;;9.80;;
10050;SDS011;5065;46.942;7.432;2022-11-14T07:53:50;13.80;;;10.20;;
10050;SDS011;5065;46.942;7.432;2022-11-14T07:56:18;14.03;;;10.10;;
10050;SDS011;5065;46.942;7.432;2022-11-14T07:58:46;12.70;;;9.60;;
10050;SDS011;5065;46.942;7.432;2022-11-14T08:01:13;12.30;;;9.87;;
10050;SDS011;5065;46.942;7.432;2022-11-14T08:03:40;12.13;;;9.60;;
10050;SDS011;5065;46.942;7.432;2022-11-14T08:06:13;13.03;;;9.43;;
10050;SDS011;5065;46.942;7.432;2022-11-14T08:08:41;12.80;;;9.73;;
10050;SDS011;5065;46.942;7.432;2022-11-14T08:11:09;12.30;;;9.83;;
10050;SDS011;5065;46.942;7.432;2022-11-14T08:13:36;12.97;;;9.47;;
10050;SDS011;5065;46.942;7.432;2022-11-14T08:16:04;12.87;;;9.93;;
10050;SDS011;5065;46.942;7.432;2022-11-14T08:18:32;15.43;;;10.53;;
10050;SDS011;5065;46.942;7.432;2022-11-14T08:21:02;14.83;;;9.63;;
10050;SDS011;5065;46.942;7.432;2022-11-14T08:23:31;12.47;;;9.70;;
10050;SDS011;5065;46.942;7.432;2022-11-14T08:25:58;15.77;;;9.37;;
10050;SDS011;5065;46.942;7.432;2022-11-14T08:28:26;10.83;;;8.87;;
10050;SDS011;5065;46.942;7.432;2022-11-14T08:30:57;11.50;;;9.60;;
10050;SDS011;5065;46.942;7.432;2022-11-14T08:33:25;9.73;;;8.47;;
10050;SDS011;5065;46.942;7.432;2022-11-14T08:35:53;13.30;;;8.83;;
10050;SDS011;5065;46.942;7.432;2022-11-14T08:38:20;12.10;;;8.87;;
10050;SDS011;5065;46.942;7.432;2022-11-14T08:40:49;14.30;;;8.60;;
10050;SDS011;5065;46.942;7.432;2022-11-14T08:43:16;12.20;;;9.53;;
10050;SDS011;5065;46.942;7.432;2022-11-14T08:45:43;10.40;;;8.60;;
10050;SDS011;5065;46.942;7.432;2022-11-14T08:48:11;10.97;;;8.53;;
10050;SDS011;5065;46.942;7.432;2022-11-14T08:50:38;16.23;;;9.80;;
10050;SDS011;5065;46.942;7.432;2022-11-14T08:53:06;16.00;;;11.47;;
10050;SDS011;5065;46.942;7.432;2022-11-14T08:55:33;14.70;;;10.90;;
10050;SDS011;5065;46.942;7.432;2022-11-14T08:58:01;14.13;;;9.67;;
10050;SDS011;5065;46.942;7.432;2022-11-14T09:00:29;10.30;;;8.17;;
10050;SDS011;5065;46.942;7.432;2022-11-14T09:02:56;11.77;;;8.90;;
10050;SDS011;5065;46.942;7.432;2022-11-14T09:05:23;10.13;;;8.07;;
10050;SDS011;5065;46.942;7.432;2022-11-14T09:07:50;9.60;;;7.23;;
10050;SDS011;5065;46.942;7.432;2022-11-14T09:10:18;10.27;;;7.57;;
10050;SDS011;5065;46.942;7.432;2022-11-14T09:12:45;9.43;;;7.67;;
10050;SDS011;5065;46.942;7.432;2022-11-14T09:15:14;9.83;;;8.00;;
10050;SDS011;5065;46.942;7.432;2022-11-14T09:17:41;9.17;;;7.20;;
10050;SDS011;5065;46.942;7.432;2022-11-14T09:20:09;10.67;;;7.73;;
10050;SDS011;5065;46.942;7.432;2022-11-14T09:22:36;9.80;;;7.97;;
10050;SDS011;5065;46.942;7.432;2022-11-14T09:25:04;13.20;;;7.30;;
10050;SDS011;5065;46.942;7.432;2022-11-14T09:27:32;9.93;;;7.70;;
10050;SDS011;5065;46.942;7.432;2022-11-14T09:29:59;7.90;;;7.07;;
10050;SDS011;5065;46.942;7.432;2022-11-14T09:32:27;9.33;;;7.87;;
10050;SDS011;5065;46.942;7.432;2022-11-14T09:34:55;9.80;;;8.30;;
10050;SDS011;5065;46.942;7.432;2022-11-14T09:37:22;10.77;;;8.10;;
10050;SDS011;5065;46.942;7.432;2022-11-14T09:39:50;9.93;;;7.67;;
10050;SDS011;5065;46.942;7.432;2022-11-14T09:42:21;11.87;;;8.67;;
10050;SDS011;5065;46.942;7.432;2022-11-14T09:45:00;9.83;;;7.67;;
10050;SDS011;5065;46.942;7.432;2022-11-14T09:47:34;9.77;;;7.37;;
10050;SDS011;5065;46.942;7.432;2022-11-14T09:50:08;8.97;;;6.43;;
10050;SDS011;5065;46.942;7.432;2022-11-14T09:52:39;10.70;;;7.50;;
10050;SDS011;5065;46.942;7.432;2022-11-14T09:55:12;9.83;;;6.43;;
10050;SDS011;5065;46.942;7.432;2022-11-14T09:57:43;8.83;;;6.70;;
10050;SDS011;5065;46.942;7.432;2022-11-14T10:00:12;12.70;;;8.17;;
10050;SDS011;5065;46.942;7.432;2022-11-14T10:02:45;13.83;;;7.27;;
10050;SDS011;5065;46.942;7.432;2022-11-14T10:05:30;10.73;;;7.23;;
10050;SDS011;5065;46.942;7.432;2022-11-14T10:08:21;8.27;;;6.80;;
10050;SDS011;5065;46.942;7.432;2022-11-14T10:11:11;9.47;;;7.93;;
10050;SDS011;5065;46.942;7.432;2022-11-14T10:13:46;9.53;;;7.50;;
10050;SDS011;5065;46.942;7.432;2022-11-14T10:16:29;10.33;;;8.47;;
10050;SDS011;5065;46.942;7.432;2022-11-14T10:19:08;10.93;;;8.00;;
10050;SDS011;5065;46.942;7.432;2022-11-14T10:21:47;13.17;;;8.40;;
10050;SDS011;5065;46.942;7.432;2022-11-14T10:24:30;10.93;;;8.43;;
10050;SDS011;5065;46.942;7.432;2022-11-14T10:27:13;12.77;;;9.23;;
10050;SDS011;5065;46.942;7.432;2022-11-14T10:29:54;12.43;;;7.80;;
10050;SDS011;5065;46.942;7.432;2022-11-14T10:32:39;8.87;;;7.23;;
10050;SDS011;5065;46.942;7.432;2022-11-14T10:35:22;11.33;;;7.60;;
10050;SDS011;5065;46.942;7.432;2022-11-14T10:37:55;9.20;;;7.83;;
10050;SDS011;5065;46.942;7.432;2022-11-14T10:40:28;12.90;;;7.93;;
10050;SDS011;5065;46.942;7.432;2022-11-14T10:43:02;10.60;;;6.43;;
10050;SDS011;5065;46.942;7.432;2022-11-14T10:45:40;11.17;;;7.37;;
10050;SDS011;5065;46.942;7.432;2022-11-14T10:48:13;9.40;;;7.30;;
10050;SDS011;5065;46.942;7.432;2022-11-14T10:50:47;7.97;;;6.70;;
10050;SDS011;5065;46.942;7.432;2022-11-14T10:53:20;6.70;;;5.60;;
10050;SDS011;5065;46.942;7.432;2022-11-14T10:55:54;9.60;;;7.33;;
10050;SDS011;5065;46.942;7.432;2022-11-14T10:58:21;9.87;;;7.20;;
10050;SDS011;5065;46.942;7.432;2022-11-14T11:00:49;11.40;;;7.90;;
10050;SDS011;5065;46.942;7.432;2022-11-14T11:03:16;12.93;;;7.60;;
10050;SDS011;5065;46.942;7.432;2022-11-14T11:05:44;9.40;;;7.50;;
10050;SDS011;5065;46.942;7.432;2022-11-14T11:08:18;9.43;;;7.03;;
10050;SDS011;5065;46.942;7.432;2022-11-14T11:11:03;10.70;;;7.70;;
10050;SDS011;5065;46.942;7.432;2022-11-14T11:13:54;10.13;;;7.20;;
10050;SDS011;5065;46.942;7.432;2022-11-14T11:16:23;9.03;;;6.97;;
10050;SDS011;5065;46.942;7.432;2022-11-14T11:18:53;10.13;;;7.30;;
10050;SDS011;5065;46.942;7.432;2022-11-14T11:21:46;11.23;;;6.80;;
10050;SDS011;5065;46.942;7.432;2022-11-14T11:24:29;7.97;;;6.53;;
10050;SDS011;5065;46.942;7.432;2022-11-14T11:27:17;8.50;;;6.60;;
10050;SDS011;5065;46.942;7.432;2022-11-14T11:29:49;7.60;;;6.37;;
10050;SDS011;5065;46.942;7.432;2022-11-14T11:32:33;9.63;;;5.90;;
10050;SDS011;5065;46.942;7.432;2022-11-14T11:35:01;6.90;;;5.60;;
10050;SDS011;5065;46.942;7.432;2022-11-14T11:37:37;7.73;;;5.60;;
10050;SDS011;5065;46.942;7.432;2022-11-14T11:40:12;8.87;;;5.60;;
10050;SDS011;5065;46.942;7.432;2022-11-14T11:42:46;5.83;;;5.00;;
10050;SDS011;5065;46.942;7.432;2022-11-14T11:45:18;6.57;;;4.93;;
10050;SDS011;5065;46.942;7.432;2022-11-14T11:47:49;7.80;;;5.07;;
10050;SDS011;5065;46.942;7.432;2022-11-14T11:50:21;9.87;;;4.97;;
10050;SDS011;5065;46.942;7.432;2022-11-14T11:52:55;5.47;;;4.50;;
10050;SDS011;5065;46.942;7.432;2022-11-14T11:55:36;7.90;;;4.80;;
10050;SDS011;5065;46.942;7.432;2022-11-14T11:58:09;6.73;;;4.87;;
10050;SDS011;5065;46.942;7.432;2022-11-14T12:00:42;5.33;;;4.83;;
10050;SDS011;5065;46.942;7.432;2022-11-14T12:03:10;6.67;;;4.90;;
10050;SDS011;5065;46.942;7.432;2022-11-14T12:05:41;6.53;;;4.50;;
10050;SDS011;5065;46.942;7.432;2022-11-14T12:08:18;5.10;;;3.90;;
10050;SDS011;5065;46.942;7.432;2022-11-14T12:10:53;6.40;;;4.93;;
10050;SDS011;5065;46.942;7.432;2022-11-14T12:16:25;5.17;;;4.67;;
10050;SDS011;5065;46.942;7.432;2022-11-14T12:19:07;7.03;;;5.33;;
10050;SDS011;5065;46.942;7.432;2022-11-14T12:25:20;6.67;;;5.17;;
10050;SDS011;5065;46.942;7.432;2022-11-14T12:28:17;5.90;;;5.10;;
10050;SDS011;5065;46.942;7.432;2022-11-14T12:31:00;7.10;;;5.03;;
10050;SDS011;5065;46.942;7.432;2022-11-14T12:33:31;7.63;;;5.03;;
10050;SDS011;5065;46.942;7.432;2022-11-14T12:36:03;6.27;;;4.83;;
10050;SDS011;5065;46.942;7.432;2022-11-14T12:38:40;6.77;;;5.57;;
10050;SDS011;5065;46.942;7.432;2022-11-14T12:41:11;5.83;;;4.80;;
10050;SDS011;5065;46.942;7.432;2022-11-14T12:43:47;7.87;;;5.57;;
10050;SDS011;5065;46.942;7.432;2022-11-14T12:46:14;8.50;;;6.07;;
10050;SDS011;5065;46.942;7.432;2022-11-14T12:48:41;11.97;;;5.53;;
10050;SDS011;5065;46.942;7.432;2022-11-14T12:57:11;7.70;;;5.73;;
10050;SDS011;5065;46.942;7.432;2022-11-14T13:00:06;7.37;;;5.83;;
10050;SDS011;5065;46.942;7.432;2022-11-14T13:05:35;6.53;;;5.40;;
10050;SDS011;5065;46.942;7.432;2022-11-14T13:08:27;8.03;;;6.00;;
10050;SDS011;5065;46.942;7.432;2022-11-14T13:11:32;9.03;;;6.10;;
10050;SDS011;5065;46.942;7.432;2022-11-14T13:14:24;6.93;;;5.27;;
10050;SDS011;5065;46.942;7.432;2022-11-14T13:17:10;8.57;;;5.40;;
10050;SDS011;5065;46.942;7.432;2022-11-14T13:29:02;6.63;;;5.27;;
10050;SDS011;5065;46.942;7.432;2022-11-14T13:34:36;9.93;;;6.20;;
10050;SDS011;5065;46.942;7.432;2022-11-14T13:37:15;10.13;;;6.37;;
10050;SDS011;5065;46.942;7.432;2022-11-14T13:39:55;7.93;;;6.27;;
10050;SDS011;5065;46.942;7.432;2022-11-14T13:42:32;9.83;;;6.13;;
10050;SDS011;5065;46.942;7.432;2022-11-14T13:45:20;6.53;;;4.97;;
10050;SDS011;5065;46.942;7.432;2022-11-14T13:51:02;5.70;;;5.13;;
10050;SDS011;5065;46.942;7.432;2022-11-14T13:53:32;8.13;;;5.77;;
10050;SDS011;5065;46.942;7.432;2022-11-14T13:56:04;8.47;;;5.10;;
10050;SDS011;5065;46.942;7.432;2022-11-14T13:58:53;9.37;;;4.97;;
10050;SDS011;5065;46.942;7.432;2022-11-14T14:01:36;7.50;;;5.03;;
10050;SDS011;5065;46.942;7.432;2022-11-14T14:04:19;8.90;;;4.67;;
10050;SDS011;5065;46.942;7.432;2022-11-14T14:07:03;5.83;;;4.97;;
10050;SDS011;5065;46.942;7.432;2022-11-14T14:09:40;6.47;;;4.80;;
10050;SDS011;5065;46.942;7.432;2022-11-14T14:12:29;6.07;;;4.47;;
10050;SDS011;5065;46.942;7.432;2022-11-14T14:15:11;7.20;;;5.13;;
10050;SDS011;5065;46.942;7.432;2022-11-14T14:17:48;6.90;;;4.80;;
10050;SDS011;5065;46.942;7.432;2022-11-14T14:20:37;5.83;;;4.87;;
10050;SDS011;5065;46.942;7.432;2022-11-14T14:23:16;8.30;;;5.67;;
10050;SDS011;5065;46.942;7.432;2022-11-14T14:25:55;6.87;;;5.33;;
10050;SDS011;5065;46.942;7.432;2022-11-14T14:28:31;5.80;;;4.83;;
10050;SDS011;5065;46.942;7.432;2022-11-14T14:31:09;7.50;;;5.13;;
10050;SDS011;5065;46.942;7.432;2022-11-14T14:33:38;11.37;;;4.33;;
10050;SDS011;5065;46.942;7.432;2022-11-14T14:36:18;5.30;;;4.27;;
10050;SDS011;5065;46.942;7.432;2022-11-14T14:38:47;5.60;;;4.43;;
10050;SDS011;5065;46.942;7.432;2022-11-14T14:41:16;6.70;;;4.23;;
10050;SDS011;5065;46.942;7.432;2022-11-14T14:43:49;5.60;;;4.10;;
10050;SDS011;5065;46.942;7.432;2022-11-14T14:46:27;5.07;;;4.10;;
10050;SDS011;5065;46.942;7.432;2022-11-14T14:48:55;6.87;;;4.13;;
10050;SDS011;5065;46.942;7.432;2022-11-14T14:51:30;6.63;;;4.80;;
10050;SDS011;5065;46.942;7.432;2022-11-14T14:53:58;5.53;;;4.33;;
10050;SDS011;5065;46.942;7.432;2022-11-14T14:56:26;6.70;;;4.77;;
10050;SDS011;5065;46.942;7.432;2022-11-14T14:58:54;4.70;;;4.20;;
10050;SDS011;5065;46.942;7.432;2022-11-14T15:01:22;9.10;;;5.23;;
10050;SDS011;5065;46.942;7.432;2022-11-14T15:03:55;6.87;;;4.53;;
10050;SDS011;5065;46.942;7.432;2022-11-14T15:06:27;5.60;;;4.43;;
10050;SDS011;5065;46.942;7.432;2022-11-14T15:08:57;4.83;;;4.33;;
10050;SDS011;5065;46.942;7.432;2022-11-14T15:11:28;5.87;;;4.70;;
10050;SDS011;5065;46.942;7.432;2022-11-14T15:13:55;5.80;;;4.87;;
10050;SDS011;5065;46.942;7.432;2022-11-14T15:16:24;7.43;;;4.63;;
10050;SDS011;5065;46.942;7.432;2022-11-14T15:18:53;9.13;;;5.33;;
10050;SDS011;5065;46.942;7.432;2022-11-14T15:21:23;6.07;;;5.30;;
10050;SDS011;5065;46.942;7.432;2022-11-14T15:24:11;9.00;;;5.60;;
10050;SDS011;5065;46.942;7.432;2022-11-14T15:26:42;6.57;;;5.43;;
10050;SDS011;5065;46.942;7.432;2022-11-14T15:29:15;6.83;;;5.27;;
10050;SDS011;5065;46.942;7.432;2022-11-14T15:31:44;8.63;;;6.03;;
10050;SDS011;5065;46.942;7.432;2022-11-14T15:34:26;9.43;;;5.70;;
10050;SDS011;5065;46.942;7.432;2022-11-14T15:37:05;6.43;;;5.30;;